EFTP/TMP METAR and TAF weather

Enter ICAO airport designator
Station Type Date Time Source
EFTP METAR 2020/10/20 17:20 UTC NOAA

EFTP 201720Z AUTO VRB01KT CAVOK M01/M02 Q1017


Station Type Date Time Source
EFTP Decoded METAR 2020/10/20 17:20 UTC NOAA

Tampere / Pirkkala, Finland (EFTP) 61-25N 023-35E 112M
Oct 20, 2020 - 01:20 PM EDT / 2020.10.20 1720 UTC
Wind: Variable at 1 MPH (1 KT):0
Visibility: greater than 7 mile(s):0
Temperature: 30 F (-1 C)
Dew Point: 28 F (-2 C)
Relative Humidity: 92%
Pressure (altimeter): 30.03 in. Hg (1017 hPa)
ob: EFTP 201720Z AUTO VRB01KT CAVOK M01/M02 Q1017
cycle: 17

Station Type Date Time Source
EFTP TAF 2020/10/20 18:42 UTC NOAA

TAF EFTP 201737Z 2018/2118 VRB02KT CAVOK
BECMG 2023/2101 5000 -SN
BECMG 2102/2104 11010KT 2500 BKN008
TEMPO 2104/2107 1300 SNRA
BECMG 2107/2109 8000 -RA BKN004
TEMPO 2109/2118 4000 RADZ

Example: see airport list